Time;durP1;ratioP1;P1;durP2;ratioP2;P2;SDS_P1;SDS_P2;PMS_P1;PMS_P2;Temp;Humidity;BMP_temperature;BMP_pressure;BME280_temperature;BME280_humidity;BME280_pressure;Samples;Min_cycle;Max_cycle;Signal;HPM_P1;HPM_P2
2024/03/04 00:01:00;;;;;;;372.93;356.17;;;9.00;99.90;;;;;;5011508;28;20460;-66
2024/03/04 00:03:27;;;;;;;377.70;359.50;;;9.00;99.90;;;;;;5011102;28;20552;-66
2024/03/04 00:05:53;;;;;;;384.40;365.83;;;9.00;99.90;;;;;;5010786;28;20481;-66
2024/03/04 00:08:20;;;;;;;372.03;355.13;;;9.00;99.90;;;;;;4995833;28;20828;-66
2024/03/04 00:10:47;;;;;;;355.40;339.03;;;9.00;99.90;;;;;;5003425;28;20445;-67
2024/03/04 00:13:14;;;;;;;351.17;334.67;;;9.00;99.90;;;;;;5009087;28;20958;-66
2024/03/04 00:15:42;;;;;;;365.07;348.07;;;9.00;99.90;;;;;;5010863;28;20965;-66
2024/03/04 00:18:10;;;;;;;345.23;329.17;;;9.00;99.90;;;;;;5002870;28;20449;-66
2024/03/04 00:20:36;;;;;;;371.20;353.60;;;8.90;99.90;;;;;;5010033;28;20818;-67
2024/03/04 00:23:05;;;;;;;356.17;339.27;;;8.90;99.90;;;;;;5014860;28;20813;-66
2024/03/04 00:25:31;;;;;;;437.97;414.97;;;8.90;99.90;;;;;;5013881;28;20516;-66
2024/03/04 00:27:58;;;;;;;410.87;390.70;;;9.00;99.90;;;;;;5015462;28;20854;-66
2024/03/04 00:30:25;;;;;;;423.07;402.37;;;8.90;99.90;;;;;;5014467;28;20463;-66
2024/03/04 00:32:53;;;;;;;426.03;404.03;;;8.90;99.90;;;;;;5014698;28;20473;-66
2024/03/04 00:35:20;;;;;;;412.70;392.00;;;8.90;99.90;;;;;;5014460;28;20449;-66
2024/03/04 00:37:47;;;;;;;416.30;394.40;;;8.90;99.90;;;;;;5014896;28;20518;-66
2024/03/04 00:40:14;;;;;;;389.83;370.37;;;8.90;99.90;;;;;;5014764;28;20457;-65
2024/03/04 00:42:41;;;;;;;416.00;394.33;;;8.90;99.90;;;;;;5011535;28;21020;-67
2024/03/04 00:45:09;;;;;;;439.50;417.10;;;8.90;99.90;;;;;;5008193;28;20484;-66
2024/03/04 00:47:37;;;;;;;419.17;398.27;;;8.90;99.90;;;;;;5012678;28;20972;-65
2024/03/04 00:50:06;;;;;;;425.40;402.90;;;8.90;99.90;;;;;;5009138;28;20457;-66
2024/03/04 00:52:32;;;;;;;421.13;398.63;;;8.90;99.90;;;;;;5014516;28;20477;-66
2024/03/04 00:55:00;;;;;;;439.77;416.60;;;8.90;99.90;;;;;;5008189;28;20535;-66
2024/03/04 00:57:27;;;;;;;452.77;428.13;;;8.90;99.90;;;;;;5008044;28;20453;-66
2024/03/04 00:59:54;;;;;;;445.63;421.13;;;8.90;99.90;;;;;;5009922;28;20462;-66
2024/03/04 01:02:21;;;;;;;456.13;430.63;;;8.90;99.90;;;;;;5010518;28;20456;-67
2024/03/04 01:04:48;;;;;;;434.37;410.47;;;8.90;99.90;;;;;;5005649;28;20996;-66
2024/03/04 01:07:16;;;;;;;461.20;434.73;;;8.90;99.90;;;;;;5014607;28;20449;-67
2024/03/04 01:09:44;;;;;;;445.23;420.07;;;8.90;99.90;;;;;;5006304;28;20453;-66
2024/03/04 01:12:10;;;;;;;454.47;429.17;;;8.90;99.90;;;;;;5009425;28;20453;-66
2024/03/04 01:14:38;;;;;;;438.43;414.83;;;8.90;99.90;;;;;;5011613;28;20830;-66
2024/03/04 01:17:12;;;;;;;453.73;428.77;;;8.90;99.90;;;;;;5014117;28;20449;-67
2024/03/04 01:19:45;;;;;;;442.37;418.27;;;8.80;99.90;;;;;;5003880;28;20470;-66
2024/03/04 01:22:13;;;;;;;462.73;436.33;;;8.90;99.90;;;;;;5009405;28;20456;-66
2024/03/04 01:24:41;;;;;;;443.17;418.40;;;8.80;99.90;;;;;;5011929;28;20854;-66
2024/03/04 01:27:08;;;;;;;458.90;433.50;;;8.80;99.90;;;;;;5008056;28;20457;-66
2024/03/04 01:29:34;;;;;;;452.07;426.37;;;8.80;99.90;;;;;;5000507;28;20449;-67
2024/03/04 01:32:02;;;;;;;470.03;442.73;;;8.80;99.90;;;;;;5013457;28;20461;-66
2024/03/04 01:34:29;;;;;;;461.23;434.87;;;8.80;99.90;;;;;;5012336;28;20479;-66
2024/03/04 01:36:56;;;;;;;459.60;433.73;;;8.80;99.90;;;;;;5013797;28;20460;-67
2024/03/04 01:39:23;;;;;;;442.63;418.73;;;8.80;99.90;;;;;;5008378;28;20468;-66
2024/03/04 01:41:51;;;;;;;459.90;433.97;;;8.80;99.90;;;;;;5009040;28;20546;-66
2024/03/04 01:44:19;;;;;;;401.07;381.20;;;8.80;99.90;;;;;;5013335;28;20473;-66
2024/03/04 01:46:46;;;;;;;391.57;372.37;;;8.70;99.90;;;;;;5013839;28;20460;-67
2024/03/04 01:49:13;;;;;;;387.93;368.13;;;8.70;99.90;;;;;;5008759;28;20465;-66
2024/03/04 01:51:40;;;;;;;421.40;400.17;;;8.70;99.90;;;;;;5013682;28;20618;-66
2024/03/04 01:54:07;;;;;;;375.03;356.93;;;8.70;99.90;;;;;;5006785;28;20468;-66
2024/03/04 01:56:35;;;;;;;362.10;344.07;;;8.60;99.90;;;;;;5002142;28;20458;-66
2024/03/04 01:59:03;;;;;;;345.00;328.60;;;8.60;99.90;;;;;;5012505;28;20457;-66
2024/03/04 02:01:30;;;;;;;411.57;391.60;;;8.60;99.90;;;;;;5012782;28;20453;-66
2024/03/04 02:03:57;;;;;;;388.10;369.50;;;8.60;99.90;;;;;;5008111;28;20503;-66
2024/03/04 02:06:25;;;;;;;342.60;326.27;;;8.60;99.90;;;;;;5013101;28;20485;-66
2024/03/04 02:08:52;;;;;;;324.30;308.97;;;8.60;99.90;;;;;;5013323;28;20479;-67
2024/03/04 02:11:19;;;;;;;334.83;318.43;;;8.60;99.90;;;;;;5013436;28;20463;-66
2024/03/04 02:13:47;;;;;;;361.57;344.17;;;8.60;99.90;;;;;;5013570;28;20469;-66
2024/03/04 02:16:16;;;;;;;409.10;389.07;;;8.60;99.90;;;;;;4997572;28;20508;-66
2024/03/04 02:18:42;;;;;;;431.90;410.80;;;8.60;99.90;;;;;;5004436;28;20461;-66
2024/03/04 02:21:11;;;;;;;453.50;429.10;;;8.60;99.90;;;;;;5005359;28;20453;-66
2024/03/04 02:23:39;;;;;;;447.07;424.97;;;8.60;99.90;;;;;;5013048;28;20487;-65
2024/03/04 02:26:06;;;;;;;435.00;413.00;;;8.60;99.90;;;;;;5012999;28;20992;-66
2024/03/04 02:28:33;;;;;;;416.83;396.40;;;8.60;99.90;;;;;;5013096;28;20995;-66
2024/03/04 02:31:01;;;;;;;420.03;399.73;;;8.70;99.90;;;;;;5000135;28;20473;-66
2024/03/04 02:33:29;;;;;;;453.60;430.50;;;8.60;99.90;;;;;;4993283;28;20488;-66
2024/03/04 02:35:57;;;;;;;412.50;392.73;;;8.60;99.90;;;;;;5005675;28;20449;-66
2024/03/04 02:38:23;;;;;;;402.07;382.40;;;8.60;99.90;;;;;;5012838;28;20452;-66
2024/03/04 02:40:53;;;;;;;399.13;380.93;;;8.60;99.90;;;;;;5012818;28;20463;-65
2024/03/04 02:43:19;;;;;;;424.40;404.07;;;8.60;99.90;;;;;;5011581;28;20473;-66
2024/03/04 02:45:46;;;;;;;421.03;400.37;;;8.60;99.90;;;;;;5012635;28;20485;-66
2024/03/04 02:48:14;;;;;;;401.83;382.07;;;8.60;99.90;;;;;;5013000;28;20456;-65
2024/03/04 02:50:40;;;;;;;340.43;324.47;;;8.50;99.90;;;;;;5002072;28;20454;-66
2024/03/04 02:53:08;;;;;;;283.03;271.03;;;8.50;99.90;;;;;;4999128;28;20479;-66
2024/03/04 02:55:37;;;;;;;329.57;315.70;;;8.50;99.90;;;;;;5002222;28;20879;-66
2024/03/04 02:58:06;;;;;;;366.37;350.97;;;8.50;99.90;;;;;;5001907;28;20515;-66
2024/03/04 03:00:33;;;;;;;288.23;275.17;;;8.50;99.90;;;;;;5010992;28;21007;-66
2024/03/04 03:03:00;;;;;;;306.07;293.07;;;8.40;99.90;;;;;;4992519;28;20478;-67
2024/03/04 03:05:27;;;;;;;333.37;319.37;;;8.40;99.90;;;;;;5008544;28;20483;-67
2024/03/04 03:07:53;;;;;;;337.67;322.70;;;8.40;99.90;;;;;;5009546;28;20953;-65
2024/03/04 03:10:20;;;;;;;327.60;313.37;;;8.40;99.90;;;;;;5012042;28;20459;-66
2024/03/04 03:12:47;;;;;;;311.47;298.47;;;8.40;99.90;;;;;;5011820;28;20472;-66
2024/03/04 03:15:15;;;;;;;356.47;340.67;;;8.40;99.90;;;;;;5011430;28;20449;-66
2024/03/04 03:17:42;;;;;;;326.37;312.17;;;8.40;99.90;;;;;;5007562;28;21765;-66
2024/03/04 03:20:16;;;;;;;340.70;325.50;;;8.40;99.90;;;;;;5004482;28;20855;-66
2024/03/04 03:22:44;;;;;;;359.40;343.47;;;8.40;99.90;;;;;;5010425;28;20544;-66
2024/03/04 03:25:11;;;;;;;331.13;316.33;;;8.40;99.90;;;;;;5003530;28;20510;-66
2024/03/04 03:27:38;;;;;;;347.93;333.07;;;8.40;99.90;;;;;;5012140;28;20453;-66
2024/03/04 03:30:06;;;;;;;325.90;311.80;;;8.40;99.90;;;;;;5012444;28;20488;-66
2024/03/04 03:32:37;;;;;;;343.17;328.50;;;8.40;99.90;;;;;;5002834;28;20474;-66
2024/03/04 03:35:05;;;;;;;340.17;325.33;;;8.50;99.90;;;;;;4992507;28;20469;-66
2024/03/04 03:37:32;;;;;;;333.63;319.23;;;8.40;99.90;;;;;;5009948;28;20464;-66
2024/03/04 03:39:59;;;;;;;327.53;313.17;;;8.40;99.90;;;;;;5012381;28;20457;-66
2024/03/04 03:42:26;;;;;;;377.37;359.77;;;8.40;99.90;;;;;;5012139;28;20456;-66
2024/03/04 03:44:53;;;;;;;364.17;348.07;;;8.40;99.90;;;;;;5011688;28;20461;-66
2024/03/04 03:47:20;;;;;;;339.83;324.33;;;8.40;99.90;;;;;;5012156;28;20460;-67
2024/03/04 03:49:48;;;;;;;351.97;336.63;;;8.40;99.90;;;;;;5011876;28;20464;-66
2024/03/04 03:52:15;;;;;;;371.53;355.23;;;8.40;99.90;;;;;;5003954;28;20563;-67
2024/03/04 03:54:41;;;;;;;413.40;394.73;;;8.40;99.90;;;;;;5002016;28;20497;-66
2024/03/04 03:57:08;;;;;;;353.83;338.43;;;8.30;99.90;;;;;;4996376;28;20450;-66
2024/03/04 03:59:35;;;;;;;360.07;345.17;;;8.30;99.90;;;;;;5005730;28;20986;-66
2024/03/04 04:02:02;;;;;;;341.70;327.17;;;8.40;99.90;;;;;;5015701;28;20449;-66
2024/03/04 04:04:28;;;;;;;319.43;305.50;;;8.30;99.90;;;;;;5014925;28;20531;-66
2024/03/04 04:06:57;;;;;;;405.13;387.53;;;8.30;99.90;;;;;;5009782;28;20476;-66
2024/03/04 04:09:24;;;;;;;424.80;404.97;;;8.30;99.90;;;;;;5015103;28;20855;-66
2024/03/04 04:11:50;;;;;;;435.93;415.93;;;8.30;99.90;;;;;;5007804;28;20469;-66
2024/03/04 04:14:17;;;;;;;454.90;432.90;;;8.30;99.90;;;;;;5011601;28;20464;-66
2024/03/04 04:16:44;;;;;;;437.97;417.37;;;8.30;99.90;;;;;;5004330;28;20456;-66
2024/03/04 04:19:11;;;;;;;413.23;393.77;;;8.30;99.90;;;;;;4995561;28;20453;-66
2024/03/04 04:21:38;;;;;;;460.90;439.10;;;8.20;99.90;;;;;;5008170;28;20454;-66
2024/03/04 04:24:06;;;;;;;455.17;431.27;;;8.30;99.90;;;;;;5014836;28;20476;-65
2024/03/04 04:26:33;;;;;;;430.03;408.57;;;8.20;99.90;;;;;;5015114;28;20488;-66
2024/03/04 04:29:02;;;;;;;436.00;415.13;;;8.20;99.90;;;;;;5015177;28;20456;-66
2024/03/04 04:31:28;;;;;;;421.33;401.40;;;8.20;99.90;;;;;;5014911;28;20976;-68
2024/03/04 04:33:55;;;;;;;364.03;347.97;;;8.20;99.90;;;;;;5006968;28;21003;-66
2024/03/04 04:36:22;;;;;;;417.57;398.37;;;8.20;99.90;;;;;;5006900;28;20450;-66
2024/03/04 04:38:49;;;;;;;396.43;377.20;;;8.20;99.90;;;;;;4995810;28;20457;-66
2024/03/04 04:41:17;;;;;;;390.83;373.53;;;8.20;99.90;;;;;;4995750;28;20953;-65
2024/03/04 04:43:44;;;;;;;409.27;390.27;;;8.20;99.90;;;;;;5014375;28;20495;-67
2024/03/04 04:46:10;;;;;;;411.53;392.27;;;8.10;99.90;;;;;;4999988;28;20478;-64
2024/03/04 04:48:37;;;;;;;445.53;422.93;;;8.20;99.90;;;;;;4999056;28;20453;-66
2024/03/04 04:51:04;;;;;;;430.73;410.23;;;8.10;99.90;;;;;;5015054;28;20881;-66
2024/03/04 04:53:32;;;;;;;434.40;412.80;;;8.10;99.90;;;;;;5013861;28;20473;-66
2024/03/04 04:55:59;;;;;;;458.27;435.80;;;8.10;99.90;;;;;;5014377;28;20527;-66
2024/03/04 04:58:28;;;;;;;448.30;425.13;;;8.10;99.90;;;;;;5012938;28;20465;-66
2024/03/04 05:00:56;;;;;;;429.83;409.17;;;8.10;99.90;;;;;;5010252;28;20445;-67
2024/03/04 05:03:23;;;;;;;421.50;400.90;;;8.00;99.90;;;;;;4998142;28;20875;-65
2024/03/04 05:05:50;;;;;;;459.27;433.83;;;8.00;99.90;;;;;;5005888;28;20491;-66
2024/03/04 05:08:17;;;;;;;449.27;424.83;;;8.10;99.90;;;;;;5014134;28;20453;-66
2024/03/04 05:10:44;;;;;;;443.77;420.37;;;8.10;99.90;;;;;;5005827;28;20464;-65
2024/03/04 05:13:11;;;;;;;451.23;427.43;;;8.10;99.90;;;;;;5013923;28;20484;-67
2024/03/04 05:15:39;;;;;;;449.27;425.67;;;8.10;99.90;;;;;;5006534;28;20449;-66
2024/03/04 05:18:06;;;;;;;445.20;421.50;;;8.10;99.90;;;;;;5014373;28;20460;-66
2024/03/04 05:20:33;;;;;;;453.37;429.60;;;8.00;99.90;;;;;;5014857;28;20453;-66
2024/03/04 05:23:00;;;;;;;463.07;438.20;;;8.10;99.90;;;;;;5001316;28;20474;-66
2024/03/04 05:25:27;;;;;;;432.27;410.77;;;8.10;99.90;;;;;;5002398;28;20453;-66
2024/03/04 05:27:53;;;;;;;415.47;393.57;;;8.00;99.90;;;;;;5000073;28;20446;-66
2024/03/04 05:30:20;;;;;;;434.73;412.57;;;8.10;99.90;;;;;;5007421;28;20458;-66
2024/03/04 05:32:48;;;;;;;440.77;417.77;;;8.10;99.90;;;;;;5003475;28;20477;-66
2024/03/04 05:35:15;;;;;;;438.43;416.63;;;8.10;99.90;;;;;;5004378;28;20553;-66
2024/03/04 05:37:42;;;;;;;418.37;398.63;;;8.10;99.90;;;;;;5013449;28;20457;-66
2024/03/04 05:40:10;;;;;;;431.90;410.67;;;8.00;99.90;;;;;;4998981;28;20453;-66
2024/03/04 05:42:39;;;;;;;416.97;398.20;;;8.00;99.90;;;;;;4994062;28;20480;-65
2024/03/04 05:45:08;;;;;;;403.80;384.80;;;8.00;99.90;;;;;;5007567;28;20875;-66
2024/03/04 05:47:36;;;;;;;405.47;386.67;;;8.00;99.90;;;;;;5003921;28;20492;-66
2024/03/04 05:50:05;;;;;;;399.37;381.50;;;8.00;99.90;;;;;;5000027;28;20937;-66
2024/03/04 05:52:32;;;;;;;446.03;424.83;;;8.00;99.90;;;;;;5013553;28;20476;-66
2024/03/04 05:54:58;;;;;;;451.30;429.60;;;8.00;99.90;;;;;;5011625;28;20845;-66
2024/03/04 05:57:26;;;;;;;432.03;411.33;;;8.00;99.90;;;;;;5005031;28;20919;-66
2024/03/04 05:59:53;;;;;;;415.83;396.47;;;7.90;99.90;;;;;;5013869;28;20532;-68
2024/03/04 06:02:20;;;;;;;413.50;394.17;;;8.00;99.90;;;;;;5011363;28;20949;-66
2024/03/04 06:04:46;;;;;;;388.47;371.27;;;7.90;99.90;;;;;;5012793;28;20831;-66
2024/03/04 06:07:15;;;;;;;400.00;382.10;;;7.90;99.90;;;;;;5013072;28;20481;-66
2024/03/04 06:09:43;;;;;;;376.93;360.43;;;7.90;99.90;;;;;;5010596;28;20567;-65
2024/03/04 06:12:10;;;;;;;418.73;399.40;;;7.90;99.90;;;;;;5006772;28;20458;-66
2024/03/04 06:14:36;;;;;;;415.60;395.70;;;7.90;99.90;;;;;;5006316;28;20715;-67
2024/03/04 06:17:03;;;;;;;398.13;380.20;;;7.90;99.90;;;;;;5010970;28;20445;-66
2024/03/04 06:19:30;;;;;;;381.40;364.37;;;7.90;99.90;;;;;;5013226;28;20957;-66
2024/03/04 06:21:57;;;;;;;409.23;390.63;;;7.90;99.90;;;;;;5008618;28;20937;-66
2024/03/04 06:24:25;;;;;;;399.87;381.67;;;7.90;99.90;;;;;;5005182;28;20695;-66
2024/03/04 06:26:52;;;;;;;402.83;384.47;;;7.90;99.90;;;;;;5012096;28;20872;-64
2024/03/04 06:29:19;;;;;;;388.93;370.97;;;7.90;99.90;;;;;;5004337;28;20449;-66
2024/03/04 06:31:46;;;;;;;406.43;388.20;;;7.90;99.90;;;;;;5013682;28;20457;-66
2024/03/04 06:34:13;;;;;;;384.77;367.70;;;7.90;99.90;;;;;;5008196;28;20473;-69
2024/03/04 06:36:41;;;;;;;390.43;372.57;;;7.90;99.90;;;;;;5010330;28;20453;-66
2024/03/04 06:39:09;;;;;;;391.33;373.77;;;7.90;99.90;;;;;;5008055;28;20552;-68
2024/03/04 06:41:37;;;;;;;397.50;379.43;;;7.90;99.90;;;;;;5010890;28;20464;-68
2024/03/04 06:44:04;;;;;;;411.40;392.50;;;7.90;99.90;;;;;;5006379;28;20481;-68
2024/03/04 06:46:33;;;;;;;399.83;381.67;;;7.90;99.90;;;;;;5010464;28;20481;-68
2024/03/04 06:49:00;;;;;;;388.17;370.37;;;7.90;99.90;;;;;;5007970;28;20454;-67
2024/03/04 06:51:28;;;;;;;384.13;366.57;;;7.90;99.90;;;;;;5010179;28;20453;-68
2024/03/04 06:53:54;;;;;;;362.67;346.77;;;7.90;99.90;;;;;;5012305;28;20540;-68
2024/03/04 06:56:22;;;;;;;364.70;348.80;;;7.90;99.90;;;;;;5011990;28;20445;-68
2024/03/04 06:58:50;;;;;;;366.40;350.20;;;7.90;99.90;;;;;;5012315;28;20511;-68
2024/03/04 07:01:17;;;;;;;352.93;337.23;;;7.90;99.90;;;;;;5012517;28;20450;-68
2024/03/04 07:03:45;;;;;;;348.63;332.97;;;8.00;99.90;;;;;;5009381;28;20470;-68
2024/03/04 07:06:13;;;;;;;356.73;341.27;;;8.00;99.90;;;;;;4999117;28;20995;-68
2024/03/04 07:08:40;;;;;;;307.87;295.20;;;8.00;99.90;;;;;;5012598;28;20457;-66
2024/03/04 07:11:07;;;;;;;278.23;267.03;;;8.00;99.90;;;;;;5012667;28;20453;-66
2024/03/04 07:13:33;;;;;;;337.90;323.40;;;7.90;99.90;;;;;;5003222;28;20857;-65
2024/03/04 07:16:02;;;;;;;256.13;246.40;;;8.00;99.90;;;;;;5012064;28;20963;-66
2024/03/04 07:18:31;;;;;;;272.23;261.67;;;7.90;99.90;;;;;;4994829;28;20458;-66
2024/03/04 07:20:58;;;;;;;298.20;286.23;;;8.00;99.90;;;;;;5009401;28;20453;-66
2024/03/04 07:23:24;;;;;;;292.90;281.17;;;7.90;99.90;;;;;;5008239;28;20985;-66
2024/03/04 07:25:51;;;;;;;249.23;239.93;;;8.00;99.90;;;;;;5011397;28;20458;-66
2024/03/04 07:28:18;;;;;;;282.87;272.03;;;8.00;99.90;;;;;;5010783;28;20889;-66
2024/03/04 07:30:45;;;;;;;298.33;286.33;;;8.10;99.90;;;;;;5006119;28;20453;-66
2024/03/04 07:33:14;;;;;;;279.37;267.93;;;8.00;99.90;;;;;;5013435;28;20480;-66
2024/03/04 07:35:40;;;;;;;301.73;290.03;;;8.00;99.90;;;;;;4999822;28;20457;-66
2024/03/04 07:38:08;;;;;;;293.17;281.47;;;8.10;99.90;;;;;;5013713;28;20459;-66
2024/03/04 07:40:34;;;;;;;277.03;265.83;;;8.00;99.90;;;;;;5016822;28;20456;-65
2024/03/04 07:43:02;;;;;;;266.47;256.17;;;8.00;99.90;;;;;;4997989;28;20473;-66
2024/03/04 07:45:29;;;;;;;262.87;252.77;;;8.00;99.90;;;;;;4997895;28;20544;-65
2024/03/04 07:47:56;;;;;;;250.83;241.47;;;8.10;99.90;;;;;;4998586;28;21004;-66
2024/03/04 07:50:24;;;;;;;223.47;214.83;;;8.20;99.90;;;;;;5014958;28;20872;-65
2024/03/04 07:52:51;;;;;;;185.67;178.40;;;8.20;99.90;;;;;;5018450;28;20854;-66
2024/03/04 07:55:18;;;;;;;191.13;184.23;;;8.20;99.90;;;;;;5015761;28;20547;-65
2024/03/04 07:57:45;;;;;;;231.20;222.70;;;8.20;99.90;;;;;;5014602;28;20544;-65
2024/03/04 08:00:13;;;;;;;274.67;264.23;;;8.30;99.90;;;;;;4997214;28;20461;-65
2024/03/04 08:02:42;;;;;;;228.37;220.00;;;8.30;99.90;;;;;;5014202;28;20527;-65
2024/03/04 08:05:09;;;;;;;240.40;231.50;;;8.30;99.90;;;;;;4997686;28;20483;-66
2024/03/04 08:07:37;;;;;;;235.40;226.40;;;8.40;99.90;;;;;;5008021;28;20543;-65
2024/03/04 08:10:06;;;;;;;209.90;202.00;;;8.40;99.90;;;;;;5017761;28;20719;-66
2024/03/04 08:12:34;;;;;;;211.17;202.97;;;8.60;99.90;;;;;;5009079;28;20472;-66
2024/03/04 08:15:01;;;;;;;91.90;87.93;;;8.70;99.90;;;;;;5012142;28;20938;-66
2024/03/04 08:17:28;;;;;;;110.20;105.70;;;8.60;99.90;;;;;;4997860;28;20449;-64
2024/03/04 08:19:56;;;;;;;87.37;83.67;;;8.70;99.90;;;;;;5002140;28;20452;-66
2024/03/04 08:22:23;;;;;;;80.40;76.50;;;8.70;99.90;;;;;;5017243;28;21023;-65
2024/03/04 08:24:51;;;;;;;66.63;63.20;;;8.70;99.90;;;;;;4997095;28;20504;-66
2024/03/04 08:27:19;;;;;;;77.07;73.30;;;8.70;99.90;;;;;;5013026;28;21014;-66
2024/03/04 08:29:46;;;;;;;85.30;81.50;;;8.70;99.90;;;;;;5017122;28;20945;-66
2024/03/04 08:32:13;;;;;;;74.50;70.67;;;8.60;99.90;;;;;;5017517;28;20780;-66
2024/03/04 08:34:40;;;;;;;57.67;54.40;;;8.60;99.90;;;;;;5016745;28;20548;-66
2024/03/04 08:37:07;;;;;;;62.80;59.50;;;8.60;99.90;;;;;;5017454;28;20453;-66
2024/03/04 08:39:34;;;;;;;73.50;70.00;;;8.60;99.90;;;;;;5007435;28;20459;-65
2024/03/04 08:42:02;;;;;;;79.13;75.70;;;8.60;99.90;;;;;;4995358;28;20466;-66
2024/03/04 08:44:30;;;;;;;74.30;70.43;;;8.60;99.90;;;;;;4993686;28;20478;-66
2024/03/04 08:46:57;;;;;;;61.88;58.67;;;8.80;99.90;;;;;;5006430;28;21017;-65
2024/03/04 08:49:24;;;;;;;32.40;30.30;;;8.70;97.60;;;;;;5013629;28;20209;-66
2024/03/04 08:51:51;;;;;;;25.63;23.53;;;8.70;97.60;;;;;;5013822;28;20542;-66
2024/03/04 08:54:17;;;;;;;25.47;23.47;;;8.80;97.60;;;;;;5013915;28;20477;-66
2024/03/04 08:56:44;;;;;;;19.53;18.23;;;8.90;97.60;;;;;;5014480;28;20945;-65
2024/03/04 08:59:12;;;;;;;22.40;20.10;;;9.00;96.70;;;;;;5014416;28;20463;-66
2024/03/04 09:01:39;;;;;;;19.50;17.80;;;9.10;97.60;;;;;;5014614;28;20464;-65
2024/03/04 09:04:06;;;;;;;23.57;17.13;;;9.00;95.20;;;;;;5014525;28;20929;-65
2024/03/04 09:06:33;;;;;;;18.40;16.60;;;9.00;94.20;;;;;;5014301;28;20459;-66
2024/03/04 09:08:59;;;;;;;15.00;13.50;;;9.20;97.60;;;;;;5014519;28;20817;-66
2024/03/04 09:11:26;;;;;;;18.33;15.90;;;9.20;94.50;;;;;;4998082;28;20962;-67
2024/03/04 09:13:55;;;;;;;33.63;18.70;;;9.20;97.50;;;;;;5014530;28;20920;-66
2024/03/04 09:16:23;;;;;;;14.43;12.10;;;9.20;94.70;;;;;;5013937;28;20457;-66
2024/03/04 09:18:50;;;;;;;16.90;14.87;;;9.30;94.40;;;;;;5014167;28;20444;-66
2024/03/04 09:21:17;;;;;;;14.57;13.07;;;9.20;94.60;;;;;;5013937;28;20459;-66
2024/03/04 09:23:47;;;;;;;14.40;13.00;;;9.10;95.30;;;;;;5010961;28;20473;-66
2024/03/04 09:26:14;;;;;;;14.43;11.80;;;9.20;92.70;;;;;;4994171;28;20541;-65
2024/03/04 09:28:49;;;;;;;14.23;9.90;;;9.10;91.10;;;;;;4994414;28;20540;-66
2024/03/04 09:31:16;;;;;;;14.33;9.30;;;9.20;91.10;;;;;;5001609;28;20487;-66
2024/03/04 09:33:44;;;;;;;15.03;11.20;;;9.40;91.20;;;;;;5013490;28;20484;-66
2024/03/04 09:36:11;;;;;;;14.30;10.43;;;9.30;91.80;;;;;;5013431;28;20568;-65
2024/03/04 09:38:37;;;;;;;15.10;11.73;;;9.30;93.00;;;;;;5013860;28;20453;-66
2024/03/04 09:41:05;;;;;;;17.90;13.20;;;9.10;91.20;;;;;;5005832;28;20464;-66
2024/03/04 09:43:37;;;;;;;14.83;10.40;;;9.10;95.50;;;;;;5004414;28;20474;-66
2024/03/04 09:46:06;;;;;;;19.87;12.93;;;9.10;91.10;;;;;;4993887;28;20549;-66
2024/03/04 09:48:36;;;;;;;22.50;20.50;;;9.00;94.40;;;;;;4994107;28;20573;-66
2024/03/04 09:51:06;;;;;;;18.37;16.07;;;9.00;96.00;;;;;;5007852;28;20456;-66
2024/03/04 09:53:37;;;;;;;15.73;13.20;;;9.10;94.40;;;;;;4995293;28;20470;-66
2024/03/04 09:56:04;;;;;;;17.70;12.60;;;9.00;93.40;;;;;;4999051;28;20463;-66
2024/03/04 09:58:32;;;;;;;12.07;10.00;;;9.00;91.00;;;;;;5013378;28;20859;-66
2024/03/04 10:01:00;;;;;;;15.50;10.47;;;9.00;91.00;;;;;;5008402;28;20857;-66
2024/03/04 10:03:28;;;;;;;15.07;9.63;;;9.00;91.00;;;;;;5010483;28;20483;-66
2024/03/04 10:05:55;;;;;;;13.10;10.97;;;9.10;91.00;;;;;;5011586;28;20456;-66
2024/03/04 10:08:24;;;;;;;16.60;11.73;;;9.10;91.10;;;;;;5012753;28;20480;-64
2024/03/04 10:10:52;;;;;;;11.83;8.67;;;9.10;91.10;;;;;;5004989;28;20475;-66
2024/03/04 10:13:20;;;;;;;10.47;8.63;;;9.10;91.10;;;;;;5012513;28;20473;-65
2024/03/04 10:15:48;;;;;;;12.60;10.17;;;9.10;91.10;;;;;;5012544;28;20840;-66
2024/03/04 10:18:16;;;;;;;13.37;9.50;;;9.00;91.00;;;;;;5004843;28;20459;-65
2024/03/04 10:20:43;;;;;;;13.77;9.70;;;9.00;91.00;;;;;;5012594;28;21964;-65
2024/03/04 10:23:09;;;;;;;11.20;8.33;;;9.10;91.10;;;;;;5012486;28;20855;-66
2024/03/04 10:25:38;;;;;;;13.47;10.37;;;9.10;91.10;;;;;;5012458;28;20972;-66
2024/03/04 10:28:06;;;;;;;14.83;9.70;;;9.20;91.10;;;;;;5012879;28;20591;-66
2024/03/04 10:30:33;;;;;;;12.00;8.70;;;9.30;91.10;;;;;;5012381;28;20453;-66
2024/03/04 10:33:03;;;;;;;10.80;8.10;;;9.30;91.10;;;;;;5012709;28;20469;-66
2024/03/04 10:35:30;;;;;;;13.23;10.17;;;9.50;91.20;;;;;;5012496;28;20456;-65
2024/03/04 10:37:59;;;;;;;10.00;6.70;;;9.40;91.20;;;;;;5012872;28;20456;-68
2024/03/04 10:40:27;;;;;;;10.17;7.40;;;9.40;91.10;;;;;;5012390;28;20453;-67
2024/03/04 10:42:58;;;;;;;10.57;7.40;;;9.40;91.10;;;;;;5012939;28;20476;-67
2024/03/04 10:45:28;;;;;;;11.47;9.70;;;9.30;91.10;;;;;;5011558;28;20471;-67
2024/03/04 10:47:56;;;;;;;13.33;7.77;;;9.30;91.10;;;;;;5005079;28;20567;-67
2024/03/04 10:50:23;;;;;;;9.63;6.53;;;9.30;91.10;;;;;;5004660;28;20457;-65
2024/03/04 10:52:51;;;;;;;9.13;7.60;;;9.40;91.10;;;;;;4993072;28;20787;-66
2024/03/04 10:55:18;;;;;;;13.60;8.38;;;9.60;91.20;;;;;;4999884;28;20542;-67
2024/03/04 10:57:46;;;;;;;9.70;5.50;;;9.80;91.30;;;;;;5012967;28;20206;-67
2024/03/04 11:00:25;;;;;;;10.40;6.20;;;9.90;89.20;;;;;;5006114;28;20464;-67
2024/03/04 11:03:04;;;;;;;9.00;5.33;;;10.00;77.30;;;;;;5004896;28;20472;-67
2024/03/04 11:05:33;;;;;;;10.37;6.50;;;10.10;77.00;;;;;;5011325;28;20448;-67
2024/03/04 11:08:04;;;;;;;11.80;5.77;;;10.10;84.70;;;;;;5012513;28;20484;-67
2024/03/04 11:10:34;;;;;;;9.63;5.20;;;10.20;80.70;;;;;;5012657;28;20939;-65
2024/03/04 11:13:10;;;;;;;8.93;4.93;;;10.10;77.00;;;;;;4999399;28;20480;-66
2024/03/04 11:15:44;;;;;;;8.13;4.73;;;10.30;77.40;;;;;;5013188;28;20860;-67
2024/03/04 11:18:37;;;;;;;8.30;4.90;;;10.20;77.10;;;;;;5007902;28;20476;-66
2024/03/04 11:21:05;;;;;;;7.87;4.23;;;10.20;77.10;;;;;;5008457;28;20452;-67
2024/03/04 11:23:33;;;;;;;8.53;4.90;;;10.10;76.90;;;;;;5011361;28;20481;-67
2024/03/04 11:26:01;;;;;;;8.40;5.55;;;10.20;77.10;;;;;;4997668;28;20343;-67
2024/03/04 11:28:28;;;;;;;8.53;5.00;;;10.20;77.10;;;;;;5012573;28;20218;-67
2024/03/04 11:30:57;;;;;;;9.03;4.87;;;10.20;77.10;;;;;;5000433;28;20465;-67
2024/03/04 11:33:40;;;;;;;11.40;5.30;;;10.10;77.00;;;;;;4992434;28;20481;-66
2024/03/04 11:36:08;;;;;;;9.43;5.20;;;10.10;77.00;;;;;;4997955;28;20457;-66
2024/03/04 11:38:41;;;;;;;11.33;4.60;;;10.30;77.20;;;;;;5011597;28;20453;-69
2024/03/04 11:41:08;;;;;;;9.73;4.53;;;10.10;77.00;;;;;;5011634;28;20461;-67
2024/03/04 11:43:45;;;;;;;8.10;4.60;;;10.00;76.90;;;;;;5012128;28;20559;-67
2024/03/04 11:46:14;;;;;;;10.80;6.97;;;10.10;77.00;;;;;;5011783;28;20933;-66
2024/03/04 11:48:42;;;;;;;9.23;5.23;;;10.10;77.00;;;;;;5012298;28;20485;-66
2024/03/04 11:51:09;;;;;;;9.20;5.23;;;10.30;77.20;;;;;;5012246;28;20829;-66
2024/03/04 11:53:37;;;;;;;9.47;4.87;;;10.20;77.10;;;;;;5012273;28;20905;-66
2024/03/04 11:56:05;;;;;;;15.90;5.43;;;10.20;77.10;;;;;;5012581;28;20449;-66
2024/03/04 11:58:32;;;;;;;10.80;5.20;;;10.40;77.30;;;;;;5012426;28;20452;-66
2024/03/04 12:01:00;;;;;;;6.70;4.30;;;10.50;77.40;;;;;;5012887;28;20460;-66
2024/03/04 12:03:28;;;;;;;9.33;4.70;;;10.40;72.50;;;;;;5012245;28;20477;-65
2024/03/04 12:05:55;;;;;;;9.73;4.20;;;10.40;77.30;;;;;;5011635;28;20941;-66
2024/03/04 12:08:22;;;;;;;8.53;4.53;;;10.40;74.10;;;;;;5012445;28;20487;-66
2024/03/04 12:10:50;;;;;;;7.70;4.70;;;10.50;77.30;;;;;;5004166;28;20449;-66
2024/03/04 12:13:20;;;;;;;8.37;4.73;;;10.50;77.40;;;;;;5011842;28;21018;-66
2024/03/04 12:15:47;;;;;;;7.80;4.70;;;10.60;77.60;;;;;;5012753;28;20839;-66
2024/03/04 12:18:13;;;;;;;7.20;4.00;;;10.50;77.30;;;;;;5015624;28;20978;-65
2024/03/04 12:20:42;;;;;;;8.20;4.23;;;10.50;77.40;;;;;;5016160;28;20488;-66
2024/03/04 12:23:09;;;;;;;9.23;4.40;;;10.40;77.30;;;;;;5016853;28;20481;-66
2024/03/04 12:25:37;;;;;;;10.00;5.27;;;10.40;77.10;;;;;;5020923;28;20453;-66
2024/03/04 12:28:05;;;;;;;9.17;6.10;;;10.40;77.30;;;;;;5008822;28;20988;-66